ENAN

Andøya Airport

Andenes, Norway
METAR ENAN 211520Z AUTO 02005KT 9999 SCT086/// BKN100/// 05/03 Q1002
Observed Flight Rules
Apr-21 @ 15:20 UTC (20 minutes ago) Visual Flight Rules
Wind Visibility Clouds
20° at 5 knots 10,000+ meters
  • Scattered at 8,600' AGL
  • Broken at 10,000' AGL
Temperatures Readings
Current 5°C / 41°F
Dewpoint 3°C / 37°F
Humidity 87%
Altimeter 29.59" Hg
Pressure 1002 hPa
Elevation 14
METAR ENAN 211520Z AUTO 02005KT 9999 SCT086/// BKN100/// 05/03 Q1002
Observed Flight Rules
Apr-21 @ 15:20 UTC
(20 minutes ago)
VFR
Wind Visibility
20° at 5 knots 10,000+ meters
Clouds
  • Scattered at 8,600' AGL
  • Broken at 10,000' AGL
Temperature Dewpoint
5°C / 41°F 3°C / 37°F
Humidity Altimeter Pressure
87% 29.59" Hg 1002 hPa